Beaverton, OR (97005)

5:58 PM PDT on April 26, 2015 (GMT -0700)
Walker/217 | | Change Station
CLOSE
Current Station
Personal Weather Station
Location: Beaverton, OR
Elevation: 223 ft
Nearby Weather Stations

Elev 223 ft 45.50 °N, 122.79 °W | Updated 1 second ago

Overcast
Overcast
59.9 °F
Feels Like 59.9 °F
N
0.4
Wind Variable Wind from WSW
Gusts 2.0 mph

Today
High -- | Low -- °F
--% Chance of Precip.
Yesterday
High -- | Low -- °F
Precip. -- in
6:07 AM 8:11 PM
First Quarter, 60% visible
Pressure 30.25 in
Visibility 10.0 miles
Clouds Mostly Cloudy 4200 ft
Overcast 5500 ft
Dew Point 47 °F
Humidity 63%
Rainfall 0.00 in
Snow Depth Not available.
UV 1 out of 12
Pollen 9.40 out of 12
Air Quality Not available.
Flu Activity Sporadic
METAR KHIO 262353Z 21006KT 10SM -RA BKN042 OVC055 14/07 A3025 RMK AO2 RAB06 SLP243 P0000 60000 T01390072 10144 20100 54000

More Conditions Fewer Conditions

Pressure 30.25 in
Visibility 10.0 miles
Clouds Mostly Cloudy 4200 ft
Overcast 5500 ft
Dew Point 47 °F
Humidity 63%
Rainfall 0.00 in
Snow Depth Not available.
UV 1 out of 12
Pollen 9.40 out of 12
Air Quality Not available.
Flu Activity Sporadic
METAR KHIO 262353Z 21006KT 10SM -RA BKN042 OVC055 14/07 A3025 RMK AO2 RAB06 SLP243 P0000 60000 T01390072 10144 20100 54000

More Conditions Fewer Conditions

The full scope of the disaster following a powerful 7.8-magnitude earthquake in Nepal may not come into view for days, but global charities are already sending emergency aid. Click to see how you can help.

10-Day Weather Forecast

Almanac

Astronomy

Apr. 26, 2015 Rise Set
Actual Time
Civil Twilight
Nautical Twilight
Astronomical Twilight
Moon
Length of Visible Light
Length of Day
Tomorrow will be .
, % of the Moon is Illuminated

Today's Extremes

State Highs State Lows

Community

WunderPhotos

Upload Photos

1,817,184 photos uploaded!

WunderBlogs® & News

Nearby

Air Quality

  Air Quality AQ Index Pollutant
Not available.

Snow Depth

Station Depth Elevation

Earthquake Activity

City Distance Mag. Time & Date
Minimum magnitude displayed is 2.5.

Coastal Water Temperatures

Place Temperature

Stations

Nearby Weather Stations

Station Location Temp. Windchill Dew Point Humidity Wind Precip. Elev Updated Type